Timberhurst, Indiana
Current Conditions -  °F | °C
As of 11:35 AM on Saturday 20 Dec 2014 (Local Time) from KANQ Reporting Station
Few Clouds Few Clouds  
Wind Chill: 23°   Ceiling: Unl
Heat Index: 28°   Visibility: 10mi
Dew Point: 23°   Wind: 5mph
Humidity: 80%   Direction: 160°SSE
Pressure: 30.27"   Gusts: NA
Location:  41.5677°N, 85.3125°W
Report Text: KANQ 201635Z AUTO 16004KT 10SM FEW032 M02/M05 A3027 RMK
Loading
Personal Weather Stations






























Interactive Weather Map New forecast layout! Learn more

10-Day Weather Forecast

Advertisements
Track Severe Weather on mobile